首页
METAR-TAF:

METAR-TAF

机场 :

黃刀鎮, 西北特區, 加拿大

纬度: 62-28N, 经度: 114-27W, 海拔: 205米

当前天气观测

该预报发布于16分钟前的11:00 UTC
风速17节,风向东转东南,有时为23节阵风
温度 -13°C
湿度 85%
气压 1007 hPa
能見度: 1.6公里
小雪

METAR: CYZF 151100Z 11017G23KT 1SM R34/P6000FT/D -SN VV007 M13/M15 A2975 RMK SN8 SLP100

时间: 04:16 (11:16 UTC)

预报

该预报发布于5小时和38分钟前的05:38 UTC
预报有效从15日的 06点(UTC)到 16日的 06点(UTC)
风速12节,风向
能見度: 10公里
散云层高于1300英尺
阴天层高于2500英尺
小雪
短暂存在
从 15日的 06点(UTC)到 15日的 14点(UTC)
阴天层高于1200英尺
小雪
从 15日的 1400点(UTC)
风速10节,风向东转东南
能見度: 4.8公里
多云层高于1500英尺
阴天层高于3000英尺
小雪
短暂存在
从 15日的 14点(UTC)到 15日的 23点(UTC)
能見度: 10公里
散云层高于1500英尺
阴天层高于4000英尺
小雪
成为
从 15日的 16点(UTC)到 15日的 18点(UTC)
风速10节,风向西转西北
从 15日的 2300点(UTC)
风速10节,风向西转西北
能見度: 10公里
多云层高于2000英尺
阴天层高于5000英尺
小雪

TAF: CYZF 150538Z 1506/1606 09012KT P6SM -SN SCT013 OVC025 TEMPO 1506/1514 11/2SM -SN OVC012 FM151400 11010KT 3SM -SN BKN015 OVC030 TEMPO 1514/1523 P6SM -SN SCT015 OVC040 BECMG 1516/1518 30010KT FM152300 30010KT P6SM -SN BKN020 OVC050 RMK NXT FCST BY 151200Z

超过4000个机场的气象观测和天气预报(METAR&TAF报告)。

可查询的气象台以黄色和红色小点在地图上表示。

将鼠标移到小点上方,可查看气象台名称。

然后点击查看天气观测和预报。

如需切换地图:点击带黑十字的绿色按钮放大地图;点击带横线的绿色按钮缩小地图;或者点击绿色箭头查看邻近地区的地图。


METAR-TAF: